Time;durP1;ratioP1;P1;durP2;ratioP2;P2;SDS_P1;SDS_P2;PMS_P1;PMS_P2;Temp;Humidity;BMP_temperature;BMP_pressure;BME280_temperature;BME280_humidity;BME280_pressure;Samples;Min_cycle;Max_cycle;Signal;HPM_P1;HPM_P2
2023/03/30 00:01:09;;;;;;;8.45;2.60;;;;;;;17.52;53.77;98345.84;5004761;27;103202;-58
2023/03/30 00:03:38;;;;;;;4.65;2.03;;;;;;;17.63;53.08;98345.56;5007156;28;102664;-59
2023/03/30 00:06:09;;;;;;;7.57;2.58;;;;;;;17.61;52.62;98342.22;5011296;28;102755;-58
2023/03/30 00:08:37;;;;;;;7.18;2.90;;;;;;;17.34;53.03;98345.13;5011629;28;104117;-59
2023/03/30 00:11:07;;;;;;;10.18;2.45;;;;;;;17.41;53.12;98338.13;5009701;28;103281;-59
2023/03/30 00:13:37;;;;;;;5.68;2.33;;;;;;;17.55;52.96;98340.19;5003020;27;102993;-60
2023/03/30 00:16:07;;;;;;;6.47;2.13;;;;;;;17.57;52.71;98326.69;5013522;27;104082;-59
2023/03/30 00:18:35;;;;;;;8.70;2.90;;;;;;;17.38;51.93;98325.94;5006968;28;103559;-58
2023/03/30 00:21:04;;;;;;;12.77;2.90;;;;;;;17.30;53.42;98333.09;5010253;28;103415;-61
2023/03/30 00:23:34;;;;;;;5.95;2.60;;;;;;;17.43;52.40;98327.28;5005868;28;102616;-59
2023/03/30 00:26:03;;;;;;;6.17;2.27;;;;;;;17.43;52.10;98328.13;5011105;28;103903;-59
2023/03/30 00:28:31;;;;;;;6.53;2.38;;;;;;;17.40;51.81;98323.13;5008969;27;103097;-59
2023/03/30 00:30:59;;;;;;;9.00;2.50;;;;;;;17.55;51.64;98316.16;5006330;27;103335;-59
2023/03/30 00:33:27;;;;;;;4.85;1.80;;;;;;;17.74;51.34;98310.50;5009995;27;102741;-60
2023/03/30 00:36:11;;;;;;;8.25;2.22;;;;;;;17.70;51.69;98309.19;5018592;27;104917;-60
2023/03/30 00:38:40;;;;;;;7.68;2.60;;;;;;;17.55;52.12;98302.81;5006367;27;103189;-59
2023/03/30 00:41:09;;;;;;;8.10;2.58;;;;;;;17.44;52.56;98296.91;5009239;27;103198;-60
2023/03/30 00:44:00;;;;;;;6.63;2.63;;;;;;;17.51;52.41;98281.91;5008820;27;102707;-59
2023/03/30 00:46:30;;;;;;;5.72;2.17;;;;;;;17.49;52.44;98286.59;5012286;27;102734;-59
2023/03/30 00:49:03;;;;;;;9.20;2.95;;;;;;;17.39;52.36;98278.72;5007746;27;104053;-59
2023/03/30 00:51:34;;;;;;;12.70;5.15;;;;;;;17.41;52.48;98276.72;5006646;27;104001;-59
2023/03/30 00:54:08;;;;;;;8.27;4.97;;;;;;;17.55;52.18;98278.78;5010140;27;103133;-59
2023/03/30 00:56:36;;;;;;;12.00;3.97;;;;;;;17.05;53.29;98275.28;5009676;27;103353;-59
2023/03/30 00:59:04;;;;;;;9.73;3.20;;;;;;;16.74;53.99;98270.47;5011312;27;103265;-59
2023/03/30 01:01:37;;;;;;;7.18;2.97;;;;;;;16.76;54.21;98260.47;5009391;27;103296;-60
2023/03/30 01:04:08;;;;;;;11.45;3.08;;;;;;;16.77;54.20;98256.00;5007796;27;102746;-63
2023/03/30 01:06:38;;;;;;;;;;;;;;;16.73;54.44;98260.81;5008416;27;103717;-59
2023/03/30 01:09:09;;;;;;;;;;;;;;;16.74;54.54;98257.16;5011824;27;104008;-59
2023/03/30 01:11:37;;;;;;;;;;;;;;;16.70;54.87;98255.78;5015390;27;103123;-59
2023/03/30 01:14:06;;;;;;;;;;;;;;;16.59;55.25;98252.59;5006726;28;102641;-59
2023/03/30 01:16:38;;;;;;;;;;;;;;;16.47;55.60;98254.66;5005453;27;103564;-60
2023/03/30 01:19:17;;;;;;;;;;;;;;;16.53;56.09;98259.34;5013433;27;104012;-59
2023/03/30 01:22:03;;;;;;;;;;;;;;;16.50;56.37;98250.84;5010828;27;103169;-59
2023/03/30 01:24:52;;;;;;;;;;;;;;;16.48;56.43;98250.97;5007939;27;102693;-60
2023/03/30 01:27:45;;;;;;;;;;;;;;;16.49;56.86;98259.81;5009945;27;103759;-60
2023/03/30 01:30:26;;;;;;;;;;;;;;;16.47;57.30;98283.97;5006512;28;103929;-59
2023/03/30 01:33:01;;;;;;;;;;;;;;;16.38;57.83;98298.25;5004830;27;102944;-60
2023/03/30 01:35:41;;;;;;;;;;;;;;;16.25;61.15;98303.97;5013046;27;102837;-59
2023/03/30 01:38:33;;;;;;;;;;;;;;;16.17;61.86;98295.09;5010441;27;103601;-60
2023/03/30 01:41:09;;;;;;;;;;;;;;;16.23;63.17;98283.81;5004726;27;104353;-60
2023/03/30 01:43:38;;;;;;;;;;;;;;;16.18;64.63;98275.44;5011747;28;103145;-59
2023/03/30 01:46:09;;;;;;;;;;;;;;;16.18;65.19;98264.78;5012549;27;102730;-59
2023/03/30 01:48:44;;;;;;;;;;;;;;;16.03;64.96;98266.34;5009998;27;104046;-60
2023/03/30 01:51:13;;;;;;;;;;;;;;;16.00;64.83;98261.34;5021144;27;104206;-59
2023/03/30 01:53:46;;;;;;;;;;;;;;;15.86;65.76;98264.56;5006299;27;105978;-60
2023/03/30 01:56:19;;;;;;;;;;;;;;;15.82;65.82;98269.34;5008369;27;102858;-59
2023/03/30 01:58:49;;;;;;;;;;;;;;;15.85;66.60;98273.53;5009852;27;103259;-60
2023/03/30 02:01:19;;;;;;;;;;;;;;;15.84;67.21;98271.84;5004760;27;102689;-59
2023/03/30 02:03:51;;;;;;;;;;;;;;;15.87;67.03;98267.06;5004820;27;103346;-60
2023/03/30 02:06:23;;;;;;;;;;;;;;;15.82;67.37;98264.03;5007799;27;102783;-59
2023/03/30 02:08:54;;;;;;;;;;;;;;;15.86;67.67;98265.38;5006292;27;102780;-60
2023/03/30 02:11:25;;;;;;;;;;;;;;;15.87;67.60;98276.88;5007778;27;103301;-59
2023/03/30 02:13:57;;;;;;;10.18;2.70;;;;;;;15.77;67.76;98274.31;5005822;27;103156;-59
2023/03/30 02:16:33;;;;;;;8.90;3.00;;;;;;;15.91;67.25;98281.75;5005854;27;103857;-59
2023/03/30 02:19:01;;;;;;;10.88;3.35;;;;;;;16.23;65.96;98275.81;5009608;27;103075;-59
2023/03/30 02:21:29;;;;;;;9.93;3.20;;;;;;;16.23;65.95;98283.81;5005174;27;104546;-59
2023/03/30 02:23:58;;;;;;;10.70;2.97;;;;;;;16.35;65.69;98292.38;5004524;28;103203;-59
2023/03/30 02:26:32;;;;;;;8.30;2.67;;;;;;;16.45;65.12;98293.94;5009338;27;102911;-59
2023/03/30 02:29:01;;;;;;;10.57;3.35;;;;;;;16.37;65.25;98299.22;5001347;27;102726;-59
2023/03/30 02:31:30;;;;;;;9.13;2.83;;;;;;;16.57;64.18;98297.22;5009360;27;103346;-58
2023/03/30 02:34:10;;;;;;;9.63;3.03;;;;;;;16.77;63.55;98304.84;5002110;27;103596;-60
2023/03/30 02:36:59;;;;;;;10.37;2.97;;;;;;;16.52;63.99;98295.00;5011020;27;103453;-59
2023/03/30 02:39:39;;;;;;;8.40;3.00;;;;;;;16.77;63.69;98293.34;5012199;27;104150;-59
2023/03/30 02:42:39;;;;;;;11.70;3.45;;;;;;;16.62;63.54;98294.91;5010956;28;103534;-59
2023/03/30 02:45:19;;;;;;;13.82;2.42;;;;;;;16.29;64.71;98293.00;5005406;28;103229;-59
2023/03/30 02:48:00;;;;;;;6.18;2.55;;;;;;;16.32;64.47;98293.53;5008991;27;102721;-60
2023/03/30 02:50:36;;;;;;;6.70;2.40;;;;;;;16.22;64.44;98290.16;5007568;27;104749;-60
2023/03/30 02:53:22;;;;;;;6.95;2.30;;;;;;;16.36;64.37;98294.06;5025296;27;104315;-59
2023/03/30 02:55:59;;;;;;;8.85;2.72;;;;;;;16.47;64.95;98286.66;5011087;27;103974;-59
2023/03/30 02:58:45;;;;;;;13.32;3.05;;;;;;;16.20;67.64;98268.97;5009914;27;102755;-60
2023/03/30 03:01:22;;;;;;;8.52;2.50;;;;;;;16.22;68.88;98282.16;5007105;27;102930;-60
2023/03/30 03:03:59;;;;;;;11.73;2.92;;;;;;;16.06;70.64;98276.69;5009137;27;102944;-59
2023/03/30 03:06:32;;;;;;;7.78;2.85;;;;;;;16.01;70.87;98257.66;5010486;27;103409;-59
2023/03/30 03:09:00;;;;;;;12.15;2.95;;;;;;;16.00;72.92;98253.34;5010191;27;103524;-60
2023/03/30 03:11:31;;;;;;;11.45;3.38;;;;;;;15.81;74.57;98241.03;5004623;27;102803;-58
2023/03/30 03:14:01;;;;;;;7.47;3.03;;;;;;;15.47;75.89;98246.22;5007140;27;103204;-59
2023/03/30 03:16:32;;;;;;;9.45;2.72;;;;;;;15.47;74.28;98240.91;5011121;27;105103;-59
2023/03/30 03:19:18;;;;;;;9.55;2.90;;;;;;;15.52;74.31;98246.59;5021297;27;102691;-60
2023/03/30 03:21:50;;;;;;;8.73;3.30;;;;;;;15.51;74.86;98244.09;5009489;27;102859;-59
2023/03/30 03:24:18;;;;;;;12.00;2.80;;;;;;;15.54;75.08;98227.84;5012943;27;103275;-59
2023/03/30 03:27:05;;;;;;;11.93;2.63;;;;;;;15.58;74.44;98224.69;5014946;27;103174;-59
2023/03/30 03:29:48;;;;;;;11.52;2.85;;;;;;;15.53;75.25;98234.97;5007181;27;102712;-59
2023/03/30 03:32:16;;;;;;;7.88;2.90;;;;;;;15.56;75.41;98229.34;5025405;27;103243;-60
2023/03/30 03:34:47;;;;;;;12.13;2.53;;;;;;;15.46;76.76;98228.59;5009837;27;106042;-59
2023/03/30 03:37:15;;;;;;;6.63;2.50;;;;;;;15.14;78.92;98230.91;5006202;27;105164;-59
2023/03/30 03:39:46;;;;;;;8.93;2.40;;;;;;;15.26;78.34;98219.06;5004644;27;102722;-59
2023/03/30 03:42:15;;;;;;;10.67;2.63;;;;;;;15.25;78.83;98212.06;5006598;27;103740;-59
2023/03/30 03:45:04;;;;;;;12.43;3.00;;;;;;;15.12;79.86;98208.94;5006706;27;105608;-59
2023/03/30 03:47:32;;;;;;;11.13;3.10;;;;;;;14.70;82.32;98215.78;5006495;27;105387;-60
2023/03/30 03:50:02;;;;;;;9.83;2.83;;;;;;;14.82;81.47;98230.56;5007038;27;102799;-60
2023/03/30 03:52:31;;;;;;;11.23;2.70;;;;;;;14.71;81.06;98222.78;5011255;27;103095;-60
2023/03/30 03:54:58;;;;;;;12.37;3.77;;;;;;;14.79;80.94;98228.19;5005481;27;103254;-60
2023/03/30 03:57:29;;;;;;;7.22;2.28;;;;;;;14.82;80.80;98233.22;5009837;27;105195;-59
2023/03/30 03:59:58;;;;;;;10.97;2.90;;;;;;;14.74;81.73;98238.41;5007390;27;103000;-59
2023/03/30 04:02:28;;;;;;;11.50;2.70;;;;;;;14.84;80.82;98229.41;5006088;27;102862;-60
2023/03/30 04:04:56;;;;;;;10.15;3.47;;;;;;;14.79;81.10;98229.00;5009043;27;105506;-59
2023/03/30 04:07:25;;;;;;;9.37;2.53;;;;;;;14.81;81.15;98224.41;5011386;27;105094;-60
2023/03/30 04:09:53;;;;;;;7.82;2.20;;;;;;;14.83;80.96;98221.56;5020335;27;102732;-59
2023/03/30 04:12:39;;;;;;;8.03;2.70;;;;;;;14.68;81.97;98217.75;4986760;27;102799;-59
2023/03/30 04:15:26;;;;;;;9.57;3.03;;;;;;;14.67;81.72;98206.28;4996215;27;103848;-58
2023/03/30 04:18:32;;;;;;;8.97;2.93;;;;;;;14.49;82.47;98203.56;4955415;28;103186;-59
2023/03/30 04:21:30;;;;;;;7.03;2.60;;;;;;;14.64;81.67;98182.66;4996140;27;103106;-59
2023/03/30 04:24:11;;;;;;;10.00;3.03;;;;;;;14.75;80.73;98170.97;4999984;27;104071;-59
2023/03/30 04:26:52;;;;;;;7.30;2.07;;;;;;;14.81;80.75;98165.06;4997612;27;103853;-59
2023/03/30 04:29:39;;;;;;;11.47;2.90;;;;;;;14.67;82.00;98155.78;5001373;27;103159;-59
2023/03/30 04:32:53;;;;;;;12.85;3.25;;;;;;;14.66;82.24;98161.22;4992284;28;102955;-59
2023/03/30 04:35:35;;;;;;;10.80;2.37;;;;;;;14.67;82.03;98153.09;5012351;27;103258;-59
2023/03/30 04:38:24;;;;;;;11.03;2.80;;;;;;;14.65;82.11;98143.63;4997629;27;103219;-59
2023/03/30 04:41:00;;;;;;;8.67;2.53;;;;;;;14.74;81.35;98130.25;5005793;27;103503;-59
2023/03/30 04:44:01;;;;;;;8.83;2.47;;;;;;;14.78;80.73;98128.97;5002308;27;102888;-59
2023/03/30 04:46:43;;;;;;;9.77;2.93;;;;;;;14.79;80.34;98125.31;5017457;27;103227;-59
2023/03/30 04:49:26;;;;;;;9.73;3.30;;;;;;;14.62;81.85;98118.16;5006850;27;103713;-59
2023/03/30 04:52:28;;;;;;;12.63;3.43;;;;;;;14.61;81.28;98113.81;4967495;27;103247;-59
2023/03/30 04:55:19;;;;;;;6.10;2.30;;;;;;;14.68;81.00;98100.78;4964353;27;102945;-59
2023/03/30 04:58:06;;;;;;;9.20;3.07;;;;;;;14.80;80.38;98112.84;5000965;27;103267;-60
2023/03/30 05:00:59;;;;;;;9.73;2.70;;;;;;;14.76;80.78;98130.09;4999430;27;104112;-59
2023/03/30 05:03:45;;;;;;;11.50;3.03;;;;;;;14.84;80.65;98124.88;5009757;27;103248;-59
2023/03/30 05:06:51;;;;;;;7.33;2.60;;;;;;;14.82;80.26;98129.50;5013698;27;102814;-59
2023/03/30 05:09:39;;;;;;;12.53;3.53;;;;;;;14.74;80.46;98127.59;4997268;27;102772;-59
2023/03/30 05:12:25;;;;;;;9.43;3.47;;;;;;;14.73;80.55;98131.25;4998164;27;103401;-59
2023/03/30 05:15:13;;;;;;;13.63;3.13;;;;;;;14.75;80.54;98123.94;4997831;27;103141;-59
2023/03/30 05:18:07;;;;;;;11.57;3.03;;;;;;;14.78;80.42;98099.72;4972544;27;103673;-59
2023/03/30 05:20:56;;;;;;;12.57;3.30;;;;;;;14.80;80.40;98112.84;4998947;27;104149;-59
2023/03/30 05:23:25;;;;;;;9.67;2.70;;;;;;;14.93;79.65;98105.34;5001097;27;104073;-59
2023/03/30 05:26:07;;;;;;;9.90;3.73;;;;;;;14.81;80.84;98098.56;4999016;27;103396;-60
2023/03/30 05:29:10;;;;;;;12.03;3.60;;;;;;;14.81;80.73;98106.56;4991559;27;102761;-59
2023/03/30 05:31:59;;;;;;;10.37;3.13;;;;;;;14.68;81.65;98103.44;4969186;27;102908;-60
2023/03/30 05:34:51;;;;;;;9.57;3.37;;;;;;;14.67;82.18;98091.13;4996555;27;104085;-59
2023/03/30 05:37:30;;;;;;;10.13;2.87;;;;;;;14.67;82.40;98077.84;4996733;27;103388;-60
2023/03/30 05:40:08;;;;;;;9.80;3.20;;;;;;;14.72;82.07;98071.06;5003777;27;102961;-59
2023/03/30 05:42:57;;;;;;;10.43;3.43;;;;;;;14.71;82.23;98076.56;4968813;27;103695;-59
2023/03/30 05:45:42;;;;;;;13.80;4.20;;;;;;;14.74;81.67;98082.38;5001490;27;103301;-59
2023/03/30 05:48:30;;;;;;;8.37;3.07;;;;;;;14.80;81.31;98067.66;5004006;27;103132;-59
2023/03/30 05:51:07;;;;;;;14.27;3.80;;;;;;;14.83;81.13;98075.31;5000822;27;102807;-60
2023/03/30 05:53:46;;;;;;;15.50;4.00;;;;;;;14.81;81.20;98091.44;5019118;27;102746;-59
2023/03/30 05:56:26;;;;;;;13.70;4.40;;;;;;;14.56;82.96;98101.97;5004037;27;103667;-59
2023/03/30 05:59:24;;;;;;;12.23;4.30;;;;;;;14.68;82.28;98106.91;4993027;27;103778;-59
2023/03/30 06:02:02;;;;;;;12.70;4.37;;;;;;;14.76;81.94;98120.31;5005532;27;102685;-59
2023/03/30 06:04:31;;;;;;;10.00;3.47;;;;;;;14.83;81.88;98128.50;5021878;27;103914;-60
2023/03/30 06:07:01;;;;;;;12.60;4.03;;;;;;;14.76;82.58;98144.25;4999445;27;105267;-59
2023/03/30 06:09:31;;;;;;;12.63;4.03;;;;;;;14.66;83.42;98159.41;5006986;27;103214;-59
2023/03/30 06:12:03;;;;;;;11.37;3.87;;;;;;;14.67;83.44;98176.19;5010535;27;102807;-60
2023/03/30 06:14:34;;;;;;;11.83;4.33;;;;;;;14.30;85.67;98187.69;5010454;27;104154;-59
2023/03/30 06:17:21;;;;;;;10.57;4.27;;;;;;;14.34;86.05;98210.31;5012878;27;103253;-59
2023/03/30 06:19:49;;;;;;;8.47;3.50;;;;;;;14.45;87.06;98198.69;5012287;28;103911;-59
2023/03/30 06:22:17;;;;;;;12.07;4.13;;;;;;;14.63;86.26;98212.03;5011148;27;103165;-59
2023/03/30 06:24:59;;;;;;;7.30;2.57;;;;;;;14.77;85.35;98212.38;5015716;27;103158;-59
2023/03/30 06:27:30;;;;;;;13.13;4.43;;;;;;;14.75;86.64;98200.22;5013206;27;102980;-59
2023/03/30 06:30:00;;;;;;;13.70;4.13;;;;;;;14.73;86.46;98192.41;5008496;27;105202;-59
2023/03/30 06:32:29;;;;;;;11.40;2.50;;;;;;;14.87;85.44;98199.03;5002257;27;102802;-59
2023/03/30 06:35:00;;;;;;;8.37;3.33;;;;;;;14.63;88.49;98188.94;5007918;27;102748;-59
2023/03/30 06:37:28;;;;;;;15.17;3.87;;;;;;;14.61;87.65;98214.84;5009274;27;103654;-59
2023/03/30 06:39:56;;;;;;;11.90;3.50;;;;;;;14.58;85.30;98243.53;5005052;27;103231;-59
2023/03/30 06:42:27;;;;;;;7.77;3.10;;;;;;;14.89;83.81;98252.91;5007877;27;102937;-59
2023/03/30 06:45:11;;;;;;;9.67;3.27;;;;;;;14.84;82.74;98247.19;5007335;27;104310;-59
2023/03/30 06:47:41;;;;;;;9.27;3.53;;;;;;;14.81;82.61;98244.81;5004778;27;103222;-59
2023/03/30 06:50:10;;;;;;;11.60;3.43;;;;;;;14.86;81.39;98250.53;5006618;27;103203;-61
2023/03/30 06:52:53;;;;;;;12.00;3.67;;;;;;;14.83;81.48;98264.13;5011776;27;103046;-60
2023/03/30 06:55:22;;;;;;;13.43;3.40;;;;;;;15.04;80.64;98273.50;5005479;27;103858;-59
2023/03/30 06:57:52;;;;;;;13.80;3.90;;;;;;;15.09;81.06;98281.06;5007527;27;103363;-59
2023/03/30 07:00:22;;;;;;;10.33;3.10;;;;;;;14.86;83.30;98282.44;5005838;27;103436;-59
2023/03/30 07:03:09;;;;;;;12.03;3.70;;;;;;;14.75;85.15;98287.97;5005023;27;102703;-59
2023/03/30 07:05:49;;;;;;;11.37;3.80;;;;;;;14.80;85.59;98304.31;5007592;27;103052;-59
2023/03/30 07:08:32;;;;;;;11.00;3.07;;;;;;;14.72;87.32;98309.50;5010717;28;103295;-59
2023/03/30 07:11:01;;;;;;;10.03;3.30;;;;;;;14.58;88.04;98321.47;5004433;28;104875;-59
2023/03/30 07:13:32;;;;;;;12.97;3.47;;;;;;;14.59;88.28;98312.53;5011268;28;103230;-59
2023/03/30 07:16:02;;;;;;;11.00;3.73;;;;;;;14.60;88.40;98310.66;5012816;28;102637;-59
2023/03/30 07:18:31;;;;;;;12.57;3.67;;;;;;;14.44;88.81;98303.31;5009261;28;105032;-59
2023/03/30 07:21:05;;;;;;;8.33;3.57;;;;;;;14.58;88.91;98323.28;5011629;27;105053;-60
2023/03/30 07:23:39;;;;;;;9.67;3.00;;;;;;;14.31;90.13;98330.19;5007876;27;102891;-59
2023/03/30 07:26:12;;;;;;;14.03;3.20;;;;;;;14.26;91.52;98328.94;5005377;27;102812;-59
2023/03/30 07:28:49;;;;;;;8.70;3.37;;;;;;;14.35;91.40;98341.38;5008003;28;103271;-59
2023/03/30 07:31:23;;;;;;;7.33;3.13;;;;;;;14.24;93.38;98358.28;5003257;28;105942;-59
2023/03/30 07:33:52;;;;;;;5.00;2.83;;;;;;;14.29;93.55;98358.69;5007911;28;103074;-59
2023/03/30 07:36:25;;;;;;;9.17;3.37;;;;;;;14.20;93.99;98350.75;5007320;27;103771;-60
2023/03/30 07:38:53;;;;;;;11.07;3.90;;;;;;;14.04;95.18;98331.88;5001373;28;103694;-59
2023/03/30 07:41:24;;;;;;;5.17;2.60;;;;;;;14.21;94.89;98310.75;5007744;28;103191;-59
2023/03/30 07:43:56;;;;;;;9.93;4.20;;;;;;;14.21;94.28;98337.31;5022888;27;103250;-60
2023/03/30 07:46:26;;;;;;;10.80;3.30;;;;;;;14.10;94.05;98329.50;5005787;28;104100;-60
2023/03/30 07:48:57;;;;;;;12.10;3.40;;;;;;;14.09;94.67;98311.88;5003615;28;103290;-59
2023/03/30 07:51:27;;;;;;;10.37;3.80;;;;;;;14.23;94.61;98308.78;5005227;27;102997;-60
2023/03/30 07:54:21;;;;;;;5.70;2.70;;;;;;;14.28;94.73;98305.72;5000473;28;103145;-60
2023/03/30 07:57:07;;;;;;;6.53;2.57;;;;;;;14.31;93.63;98306.28;5007443;28;102862;-59
2023/03/30 07:59:35;;;;;;;9.67;3.27;;;;;;;14.39;92.76;98318.88;5008281;28;103240;-60
2023/03/30 08:02:16;;;;;;;7.17;3.10;;;;;;;13.90;97.07;98319.88;5005754;28;105515;-60
2023/03/30 08:04:49;;;;;;;9.30;2.90;;;;;;;14.14;96.97;98333.56;5007821;27;103568;-60
2023/03/30 08:07:26;;;;;;;7.43;2.73;;;;;;;14.47;94.79;98333.13;5010721;28;102730;-60
2023/03/30 08:10:01;;;;;;;9.23;3.97;;;;;;;14.26;95.95;98334.25;5006819;28;103312;-60
2023/03/30 08:12:29;;;;;;;8.10;3.00;;;;;;;14.50;94.07;98366.53;5008371;28;103261;-60
2023/03/30 08:14:57;;;;;;;9.63;3.53;;;;;;;14.40;93.59;98381.66;5007043;28;102636;-59
2023/03/30 08:17:27;;;;;;;8.67;3.40;;;;;;;14.37;93.45;98401.38;5009485;28;102703;-60
2023/03/30 08:19:55;;;;;;;10.33;3.47;;;;;;;14.36;93.34;98397.06;5006987;28;103321;-60
2023/03/30 08:22:23;;;;;;;5.87;2.70;;;;;;;14.53;92.82;98406.13;5015719;28;103222;-60
2023/03/30 08:24:51;;;;;;;5.37;2.87;;;;;;;14.59;92.75;98410.03;5011963;28;102674;-60
2023/03/30 08:27:19;;;;;;;5.30;2.37;;;;;;;14.63;92.58;98406.09;5015501;28;103529;-60
2023/03/30 08:29:48;;;;;;;5.33;3.20;;;;;;;14.59;93.10;98399.41;5004047;28;103634;-60
2023/03/30 08:32:16;;;;;;;8.23;3.13;;;;;;;14.49;94.11;98394.94;5006049;28;102884;-60
2023/03/30 08:34:48;;;;;;;6.30;2.67;;;;;;;14.31;93.34;98393.97;5011098;28;102833;-60
2023/03/30 08:37:16;;;;;;;9.90;4.17;;;;;;;14.19;92.89;98368.50;5003393;27;104206;-59
2023/03/30 08:39:44;;;;;;;7.00;3.60;;;;;;;14.27;94.45;98373.94;5014246;28;104206;-60
2023/03/30 08:42:34;;;;;;;8.53;3.30;;;;;;;14.58;92.96;98344.53;5010217;28;103165;-60
2023/03/30 08:45:08;;;;;;;;;;;;;;;14.59;93.54;98325.81;5007307;28;102768;-55
2023/03/30 08:47:38;;;;;;;;;;;;;;;14.35;94.62;98320.97;5006215;28;103055;-55
2023/03/30 08:50:11;;;;;;;;;;;;;;;14.37;94.91;98331.47;5012046;28;103256;-60
2023/03/30 08:52:40;;;;;;;;;;;;;;;14.38;94.99;98331.31;5005488;28;103172;-57
2023/03/30 08:55:15;;;;;;;;;;;;;;;14.10;96.17;98336.63;5010281;28;102639;-59
2023/03/30 08:57:47;;;;;;;;;;;;;;;14.22;95.54;98315.09;5012787;28;102652;-59
2023/03/30 09:00:26;;;;;;;;;;;;;;;14.04;96.32;98306.16;5004618;28;104087;-59
2023/03/30 09:02:58;;;;;;;;;;;;;;;13.92;97.52;98299.34;5004480;27;103815;-59
2023/03/30 09:05:30;;;;;;;;;;;;;;;13.76;99.03;98307.00;5010600;28;102739;-60
2023/03/30 09:08:02;;;;;;;;;;;;;;;13.84;99.23;98301.84;5008950;28;102630;-59
2023/03/30 09:10:31;;;;;;;;;;;;;;;13.79;100.00;98285.50;5013427;28;103677;-59
2023/03/30 09:13:02;;;;;;;;;;;;;;;13.81;99.97;98280.91;5011169;28;103256;-59
2023/03/30 09:15:31;;;;;;;;;;;;;;;13.82;99.94;98301.16;5010300;28;103080;-59
2023/03/30 09:18:02;;;;;;;;;;;;;;;13.78;100.00;98316.50;5006704;28;102638;-59
2023/03/30 09:20:33;;;;;;;;;;;;;;;13.91;99.71;98318.91;5010781;27;104140;-59
2023/03/30 09:23:02;;;;;;;;;;;;;;;14.11;98.28;98311.75;5009240;28;103172;-59
2023/03/30 09:25:34;;;;;;;;;;;;;;;14.01;98.05;98314.41;5011333;28;102708;-59
2023/03/30 09:28:06;;;;;;;;;;;;;;;14.23;97.65;98318.59;5011048;28;102666;-59
2023/03/30 09:30:37;;;;;;;;;;;;;;;14.37;95.65;98324.31;5012707;28;104007;-59
2023/03/30 09:33:10;;;;;;;;;;;;;;;14.39;95.28;98316.22;5005845;28;104136;-59
2023/03/30 09:35:41;;;;;;;;;;;;;;;14.49;95.51;98314.34;5016067;28;102665;-59
2023/03/30 09:38:10;;;;;;;;;;;;;;;14.65;95.13;98321.72;5012400;28;102883;-59
2023/03/30 09:40:47;;;;;;;;;;;;;;;14.77;93.21;98328.53;5009492;28;103104;-59
2023/03/30 09:43:16;;;;;;;;;;;;;;;14.95;92.45;98338.25;5012415;27;102939;-59
2023/03/30 09:45:46;;;;;;;;;;;;;;;14.88;92.98;98346.94;5004007;28;102645;-59
2023/03/30 09:48:15;;;;;;;;;;;;;;;14.86;93.37;98343.59;5018351;28;103012;-59
2023/03/30 09:50:46;;;;;;;;;;;;;;;14.99;93.08;98358.25;5006242;28;103252;-59
2023/03/30 09:53:24;;;;;;;;;;;;;;;14.76;92.67;98348.13;5013239;28;102944;-60
2023/03/30 09:55:58;;;;;;;;;;;;;;;14.81;89.54;98367.16;5008523;28;103790;-59
2023/03/30 09:58:27;;;;;;;;;;;;;;;14.79;89.36;98366.47;5014129;28;102742;-59
2023/03/30 10:01:04;;;;;;;;;;;;;;;14.92;89.56;98359.84;5015000;28;104129;-59
2023/03/30 10:03:32;;;;;;;;;;;;;;;14.94;88.29;98370.31;5009726;27;103140;-59
2023/03/30 10:06:06;;;;;;;;;;;;;;;14.95;87.95;98364.03;5006567;28;102574;-60
2023/03/30 10:08:38;;;;;;;;;;;;;;;14.88;88.18;98357.59;5011939;28;104229;-59
2023/03/30 10:11:06;;;;;;;;;;;;;;;14.72;86.76;98352.91;5009110;28;103199;-59
2023/03/30 10:13:36;;;;;;;;;;;;;;;14.76;86.95;98350.78;5014254;28;103140;-59
2023/03/30 10:16:06;;;;;;;;;;;;;;;14.98;86.38;98355.75;5009778;28;103027;-59
2023/03/30 10:18:39;;;;;;;;;;;;;;;14.90;83.86;98347.66;5014366;28;102713;-59
2023/03/30 10:21:16;;;;;;;;;;;;;;;15.41;83.49;98337.31;5010058;28;104134;-59
2023/03/30 10:23:45;;;;;;;;;;;;;;;15.63;82.69;98339.56;4999149;28;102912;-59
2023/03/30 10:26:16;;;;;;;;;;;;;;;15.75;81.64;98344.69;5011304;28;102664;-59
2023/03/30 10:28:52;;;;;;;;;;;;;;;15.51;82.03;98330.13;5002375;28;103223;-59
2023/03/30 10:31:20;;;;;;;;;;;;;;;15.64;81.33;98327.94;5006436;28;103235;-60
2023/03/30 10:33:48;;;;;;;;;;;;;;;15.79;82.74;98322.09;5006217;28;103109;-62
2023/03/30 10:36:19;;;;;;;;;;;;;;;15.64;82.63;98314.63;5007899;28;102839;-59
2023/03/30 10:38:47;;;;;;;;;;;;;;;15.59;81.13;98295.59;4996455;28;103059;-59
2023/03/30 10:41:19;;;;;;;;;;;;;;;15.66;80.84;98303.84;5002770;28;104133;-60
2023/03/30 10:43:48;;;;;;;;;;;;;;;15.70;80.11;98304.34;5002101;28;103271;-60
2023/03/30 10:46:17;;;;;;;;;;;;;;;15.90;78.90;98309.38;5001801;28;102764;-60
2023/03/30 10:48:58;;;;;;;;;;;;;;;16.04;78.12;98305.31;5006734;28;103305;-60
2023/03/30 10:51:31;;;;;;;;;;;;;;;15.88;78.51;98300.72;5010581;28;103256;-60
2023/03/30 10:54:03;;;;;;;;;;;;;;;15.82;78.70;98298.66;5003144;27;103136;-60
2023/03/30 10:56:32;;;;;;;;;;;;;;;15.76;79.96;98295.75;5009284;28;102640;-60
2023/03/30 10:59:30;;;;;;;;;;;;;;;15.75;80.27;98294.91;5007465;28;104010;-59
2023/03/30 11:02:15;;;;;;;;;;;;;;;15.76;79.54;98269.97;4929858;28;103219;-60
2023/03/30 11:04:45;;;;;;;;;;;;;;;15.64;78.13;98272.03;4997023;28;103163;-60
2023/03/30 11:07:17;;;;;;;;;;;;;;;16.04;78.63;98284.84;5014702;28;103139;-60
2023/03/30 11:09:51;;;;;;;;;;;;;;;16.33;76.05;98295.22;5013528;28;102688;-60
2023/03/30 11:12:21;;;;;;;;;;;;;;;16.34;73.09;98296.88;5003747;28;103238;-60
2023/03/30 11:14:51;;;;;;;;;;;;;;;16.81;72.99;98292.03;5005642;28;102874;-60
2023/03/30 11:17:22;;;;;;;;;;;;;;;16.95;71.06;98302.09;5008670;28;102802;-60
2023/03/30 11:19:53;;;;;;;;;;;;;;;16.78;71.70;98317.19;5008097;28;102603;-60
2023/03/30 11:22:25;;;;;;;;;;;;;;;16.88;70.02;98321.56;5008268;28;104143;-59
2023/03/30 11:24:55;;;;;;;;;;;;;;;16.79;70.46;98313.50;5005858;28;103166;-60
2023/03/30 11:27:26;;;;;;;;;;;;;;;17.09;70.09;98308.66;5010291;28;102684;-60
2023/03/30 11:29:58;;;;;;;;;;;;;;;16.92;68.99;98306.91;5012497;28;103612;-59
2023/03/30 11:32:31;;;;;;;;;;;;;;;16.73;69.46;98303.47;5005669;27;103294;-59
2023/03/30 11:35:06;;;;;;;;;;;;;;;16.94;69.46;98304.91;5006806;28;103956;-60
2023/03/30 11:37:38;;;;;;;;;;;;;;;17.60;69.45;98308.50;5009492;28;103139;-61
2023/03/30 11:40:15;;;;;;;;;;;;;;;17.65;68.40;98322.22;5009324;28;103712;-61
2023/03/30 11:42:43;;;;;;;;;;;;;;;17.23;69.26;98322.22;5008071;27;103142;-61
2023/03/30 11:45:17;;;;;;;;;;;;;;;17.27;70.20;98323.56;5005749;28;103268;-61
2023/03/30 11:47:55;;;;;;;;;;;;;;;17.37;71.81;98326.13;5006183;28;102795;-61
2023/03/30 11:50:31;;;;;;;4.17;2.50;;;;;;;17.04;71.89;98310.97;5004683;28;103503;-61
2023/03/30 11:53:16;;;;;;;4.65;2.47;;;;;;;17.67;72.26;98309.50;5004512;28;104563;-61
2023/03/30 11:55:54;;;;;;;3.85;2.60;;;;;;;18.03;69.44;98322.56;5005084;28;103231;-60
2023/03/30 12:01:37;;;;;;;3.80;2.50;;;;;;;18.24;68.48;98328.25;5007618;27;102749;-61
2023/03/30 12:04:10;;;;;;;6.03;2.40;;;;;;;17.63;68.47;98318.84;5004523;28;103214;-61
2023/03/30 12:06:42;;;;;;;4.85;1.90;;;;;;;17.65;68.55;98327.56;5022292;27;102927;-61
2023/03/30 12:09:33;;;;;;;3.33;1.60;;;;;;;17.48;68.58;98323.13;5004775;28;102800;-60
2023/03/30 12:12:14;;;;;;;3.38;1.73;;;;;;;17.00;69.42;98320.28;5006013;27;102729;-61
2023/03/30 12:14:55;;;;;;;3.63;1.75;;;;;;;17.26;68.34;98321.06;5005889;28;104315;-61
2023/03/30 12:17:41;;;;;;;4.05;2.13;;;;;;;17.05;68.12;98320.63;5001677;28;103212;-61
2023/03/30 12:20:21;;;;;;;2.85;1.77;;;;;;;17.57;67.21;98321.34;5006063;28;102658;-61
2023/03/30 12:22:55;;;;;;;4.32;2.40;;;;;;;17.34;67.26;98321.09;5009097;28;103172;-61
2023/03/30 12:25:34;;;;;;;3.17;1.63;;;;;;;17.55;67.70;98302.81;5002643;28;103251;-61
2023/03/30 12:28:11;;;;;;;4.75;1.90;;;;;;;17.96;66.04;98309.88;5003994;28;103384;-61